KTIW/TIW METAR and TAF weather

Enter ICAO airport designator
Station Type Date Time Source
KTIW METAR 2019/07/20 04:53 UTC NOAA

KTIW 200453Z AUTO 02011KT 10SM CLR 16/07 A3011 RMK AO2 SLP194 T01560072


Station Type Date Time Source
KTIW Decoded METAR 2019/07/20 04:53 UTC NOAA

Tacoma, Tacoma Narrows Airport, WA, United States (KTIW) 47-16-03N 122-34-34W 96M
Jul 20, 2019 - 12:53 AM EDT / 2019.07.20 0453 UTC
Wind: from the NNE (020 degrees) at 13 MPH (11 KT):0
Visibility: 10 mile(s):0
Sky conditions: clear
Temperature: 60.1 F (15.6 C)
Dew Point: 45.0 F (7.2 C)
Relative Humidity: 57%
Pressure (altimeter): 30.11 in. Hg (1019 hPa)
ob: KTIW 200453Z AUTO 02011KT 10SM CLR 16/07 A3011 RMK AO2 SLP194 T01560072
cycle: 5

Station Type Date Time Source
KTIW TAF UTC NOAA

Error!

Example: see airport list